sensor_id;sensor_type;location;lat;lon;timestamp;pressure;altitude;pressure_sealevel;temperature;humidity
71638;BME280;59485;43.542;-5.676;2022-08-21T00:01:28;101898.75;;;21.79;91.09
71638;BME280;59485;43.542;-5.676;2022-08-21T00:03:54;101885.53;;;21.74;91.15
71638;BME280;59485;43.542;-5.676;2022-08-21T00:06:21;101871.75;;;21.61;89.47
71638;BME280;59485;43.542;-5.676;2022-08-21T00:08:46;101899.72;;;21.73;89.06
71638;BME280;59485;43.542;-5.676;2022-08-21T00:11:12;101852.13;;;21.38;89.19
71638;BME280;59485;43.542;-5.676;2022-08-21T00:13:39;101899.25;;;21.57;89.05
71638;BME280;59485;43.542;-5.676;2022-08-21T00:16:04;101880.50;;;21.34;89.93
71638;BME280;59485;43.542;-5.676;2022-08-21T00:18:30;101881.69;;;21.39;89.85
71638;BME280;59485;43.542;-5.676;2022-08-21T00:20:56;101902.94;;;21.40;89.82
71638;BME280;59485;43.542;-5.676;2022-08-21T00:23:22;101907.94;;;21.38;90.35
71638;BME280;59485;43.542;-5.676;2022-08-21T00:25:48;101902.81;;;21.34;91.27
71638;BME280;59485;43.542;-5.676;2022-08-21T00:28:14;101883.97;;;21.30;90.58
71638;BME280;59485;43.542;-5.676;2022-08-21T00:30:41;101893.59;;;21.34;89.94
71638;BME280;59485;43.542;-5.676;2022-08-21T00:33:07;101896.47;;;21.27;90.13
71638;BME280;59485;43.542;-5.676;2022-08-21T00:35:37;101867.22;;;21.12;90.46
71638;BME280;59485;43.542;-5.676;2022-08-21T00:38:05;101894.28;;;21.29;91.22
71638;BME280;59485;43.542;-5.676;2022-08-21T00:40:50;101894.53;;;21.28;90.32
71638;BME280;59485;43.542;-5.676;2022-08-21T00:43:19;101885.16;;;21.22;90.99
71638;BME280;59485;43.542;-5.676;2022-08-21T00:45:46;101879.78;;;21.21;90.44
71638;BME280;59485;43.542;-5.676;2022-08-21T00:48:11;101891.97;;;21.26;90.01
71638;BME280;59485;43.542;-5.676;2022-08-21T00:50:42;101876.94;;;21.27;90.27
71638;BME280;59485;43.542;-5.676;2022-08-21T00:53:09;101887.38;;;21.32;88.85
71638;BME280;59485;43.542;-5.676;2022-08-21T00:55:37;101879.88;;;21.32;88.75
71638;BME280;59485;43.542;-5.676;2022-08-21T00:58:05;101869.78;;;21.31;89.30
71638;BME280;59485;43.542;-5.676;2022-08-21T01:00:35;101863.00;;;21.27;89.34
71638;BME280;59485;43.542;-5.676;2022-08-21T01:03:12;101846.72;;;21.24;89.01
71638;BME280;59485;43.542;-5.676;2022-08-21T01:05:39;101860.78;;;21.29;88.66
71638;BME280;59485;43.542;-5.676;2022-08-21T01:08:06;101832.63;;;21.19;87.74
71638;BME280;59485;43.542;-5.676;2022-08-21T01:10:32;101867.53;;;21.40;87.67
71638;BME280;59485;43.542;-5.676;2022-08-21T01:12:59;101857.63;;;21.44;88.30
71638;BME280;59485;43.542;-5.676;2022-08-21T01:15:30;101833.75;;;21.30;87.76
71638;BME280;59485;43.542;-5.676;2022-08-21T01:17:57;101825.16;;;21.31;87.18
71638;BME280;59485;43.542;-5.676;2022-08-21T01:20:23;101840.13;;;21.37;87.17
71638;BME280;59485;43.542;-5.676;2022-08-21T01:22:48;101849.00;;;21.46;86.90
71638;BME280;59485;43.542;-5.676;2022-08-21T01:25:18;101843.44;;;21.46;86.64
71638;BME280;59485;43.542;-5.676;2022-08-21T01:27:47;101845.72;;;21.49;86.60
71638;BME280;59485;43.542;-5.676;2022-08-21T01:30:23;101817.03;;;21.30;86.82
71638;BME280;59485;43.542;-5.676;2022-08-21T01:32:49;101839.84;;;21.39;86.68
71638;BME280;59485;43.542;-5.676;2022-08-21T01:35:17;101839.84;;;21.39;87.26
71638;BME280;59485;43.542;-5.676;2022-08-21T01:37:44;101833.75;;;21.30;87.05
71638;BME280;59485;43.542;-5.676;2022-08-21T01:40:12;101845.78;;;21.30;88.65
71638;BME280;59485;43.542;-5.676;2022-08-21T01:42:38;101847.47;;;21.31;88.15
71638;BME280;59485;43.542;-5.676;2022-08-21T01:45:06;101842.28;;;21.35;88.18
71638;BME280;59485;43.542;-5.676;2022-08-21T01:47:31;101841.44;;;21.34;87.55
71638;BME280;59485;43.542;-5.676;2022-08-21T01:49:58;101825.03;;;21.26;87.68
71638;BME280;59485;43.542;-5.676;2022-08-21T01:52:23;101835.41;;;21.38;87.80
71638;BME280;59485;43.542;-5.676;2022-08-21T01:54:49;101830.91;;;21.37;87.01
71638;BME280;59485;43.542;-5.676;2022-08-21T01:57:14;101807.66;;;21.24;87.33
71638;BME280;59485;43.542;-5.676;2022-08-21T01:59:40;101820.34;;;21.39;86.92
71638;BME280;59485;43.542;-5.676;2022-08-21T02:02:06;101776.03;;;21.12;86.61
71638;BME280;59485;43.542;-5.676;2022-08-21T02:04:32;101822.03;;;21.40;86.33
71638;BME280;59485;43.542;-5.676;2022-08-21T02:06:59;101810.03;;;21.39;86.25
71638;BME280;59485;43.542;-5.676;2022-08-21T02:09:24;101821.13;;;21.46;86.44
71638;BME280;59485;43.542;-5.676;2022-08-21T02:11:50;101812.50;;;21.47;86.62
71638;BME280;59485;43.542;-5.676;2022-08-21T02:14:17;101787.97;;;21.38;86.51
71638;BME280;59485;43.542;-5.676;2022-08-21T02:16:43;101808.13;;;21.51;86.63
71638;BME280;59485;43.542;-5.676;2022-08-21T02:19:10;101798.16;;;21.44;86.41
71638;BME280;59485;43.542;-5.676;2022-08-21T02:21:36;101811.78;;;21.52;86.39
71638;BME280;59485;43.542;-5.676;2022-08-21T02:24:02;101804.38;;;21.46;86.20
71638;BME280;59485;43.542;-5.676;2022-08-21T02:26:29;101796.59;;;21.48;86.56
71638;BME280;59485;43.542;-5.676;2022-08-21T02:28:54;101787.63;;;21.46;86.73
71638;BME280;59485;43.542;-5.676;2022-08-21T02:31:20;101799.38;;;21.48;86.47
71638;BME280;59485;43.542;-5.676;2022-08-21T02:33:45;101781.28;;;21.39;86.10
71638;BME280;59485;43.542;-5.676;2022-08-21T02:36:11;101798.69;;;21.52;86.48
71638;BME280;59485;43.542;-5.676;2022-08-21T02:38:39;101774.88;;;21.38;85.80
71638;BME280;59485;43.542;-5.676;2022-08-21T02:41:08;101793.44;;;21.44;85.82
71638;BME280;59485;43.542;-5.676;2022-08-21T02:43:34;101810.69;;;21.53;85.71
71638;BME280;59485;43.542;-5.676;2022-08-21T02:46:02;101800.00;;;21.50;85.74
71638;BME280;59485;43.542;-5.676;2022-08-21T02:48:30;101798.22;;;21.55;85.48
71638;BME280;59485;43.542;-5.676;2022-08-21T02:51:01;101757.97;;;21.33;85.27
71638;BME280;59485;43.542;-5.676;2022-08-21T02:53:28;101795.44;;;21.55;85.56
71638;BME280;59485;43.542;-5.676;2022-08-21T02:55:57;101760.31;;;21.36;85.42
71638;BME280;59485;43.542;-5.676;2022-08-21T02:58:28;101788.38;;;21.53;85.48
71638;BME280;59485;43.542;-5.676;2022-08-21T03:00:55;101760.66;;;21.40;85.63
71638;BME280;59485;43.542;-5.676;2022-08-21T03:03:21;101774.03;;;21.49;85.41
71638;BME280;59485;43.542;-5.676;2022-08-21T03:05:47;101771.47;;;21.48;85.53
71638;BME280;59485;43.542;-5.676;2022-08-21T03:08:14;101779.38;;;21.51;85.09
71638;BME280;59485;43.542;-5.676;2022-08-21T03:10:45;101769.31;;;21.50;85.13
71638;BME280;59485;43.542;-5.676;2022-08-21T03:13:12;101760.66;;;21.40;85.00
71638;BME280;59485;43.542;-5.676;2022-08-21T03:15:38;101747.69;;;21.33;84.84
71638;BME280;59485;43.542;-5.676;2022-08-21T03:18:06;101772.84;;;21.45;84.52
71638;BME280;59485;43.542;-5.676;2022-08-21T03:20:32;101774.53;;;21.46;84.53
71638;BME280;59485;43.542;-5.676;2022-08-21T03:22:58;101775.13;;;21.48;84.38
71638;BME280;59485;43.542;-5.676;2022-08-21T03:25:25;101772.59;;;21.47;84.35
71638;BME280;59485;43.542;-5.676;2022-08-21T03:27:50;101777.84;;;21.55;84.19
71638;BME280;59485;43.542;-5.676;2022-08-21T03:30:18;101777.56;;;21.56;83.68
71638;BME280;59485;43.542;-5.676;2022-08-21T03:32:45;101756.91;;;21.34;82.93
71638;BME280;59485;43.542;-5.676;2022-08-21T03:35:12;101775.97;;;21.49;82.51
71638;BME280;59485;43.542;-5.676;2022-08-21T03:37:38;101778.66;;;21.44;82.80
71638;BME280;59485;43.542;-5.676;2022-08-21T03:40:07;101776.53;;;21.39;82.97
71638;BME280;59485;43.542;-5.676;2022-08-21T03:42:34;101770.50;;;21.42;82.98
71638;BME280;59485;43.542;-5.676;2022-08-21T03:45:00;101762.25;;;21.36;82.74
71638;BME280;59485;43.542;-5.676;2022-08-21T03:47:26;101749.09;;;21.24;82.66
71638;BME280;59485;43.542;-5.676;2022-08-21T03:49:51;101769.09;;;21.21;83.48
71638;BME280;59485;43.542;-5.676;2022-08-21T03:52:17;101749.84;;;21.20;82.81
71638;BME280;59485;43.542;-5.676;2022-08-21T03:54:45;101770.47;;;21.30;83.01
71638;BME280;59485;43.542;-5.676;2022-08-21T03:57:11;101755.44;;;21.31;82.47
71638;BME280;59485;43.542;-5.676;2022-08-21T03:59:37;101743.41;;;21.19;82.64
71638;BME280;59485;43.542;-5.676;2022-08-21T04:02:06;101758.22;;;21.31;82.25
71638;BME280;59485;43.542;-5.676;2022-08-21T04:04:32;101733.94;;;21.20;82.45
71638;BME280;59485;43.542;-5.676;2022-08-21T04:06:58;101764.03;;;21.30;82.95
71638;BME280;59485;43.542;-5.676;2022-08-21T04:09:24;101758.47;;;21.12;83.16
71638;BME280;59485;43.542;-5.676;2022-08-21T04:11:50;101769.38;;;21.13;83.16
71638;BME280;59485;43.542;-5.676;2022-08-21T04:14:16;101770.81;;;21.04;83.53
71638;BME280;59485;43.542;-5.676;2022-08-21T04:16:43;101753.94;;;20.99;83.34
71638;BME280;59485;43.542;-5.676;2022-08-21T04:19:10;101776.03;;;21.12;83.33
71638;BME280;59485;43.542;-5.676;2022-08-21T04:21:36;101774.94;;;21.02;84.10
71638;BME280;59485;43.542;-5.676;2022-08-21T04:24:04;101770.81;;;21.04;83.81
71638;BME280;59485;43.542;-5.676;2022-08-21T04:26:29;101774.22;;;21.06;83.97
71638;BME280;59485;43.542;-5.676;2022-08-21T04:28:59;101755.34;;;20.90;83.38
71638;BME280;59485;43.542;-5.676;2022-08-21T04:31:24;101779.56;;;21.08;83.11
71638;BME280;59485;43.542;-5.676;2022-08-21T04:33:50;101770.34;;;21.07;82.92
71638;BME280;59485;43.542;-5.676;2022-08-21T04:36:17;101788.44;;;21.16;83.45
71638;BME280;59485;43.542;-5.676;2022-08-21T04:38:42;101775.69;;;21.09;83.47
71638;BME280;59485;43.542;-5.676;2022-08-21T04:41:08;101782.03;;;21.16;83.89
71638;BME280;59485;43.542;-5.676;2022-08-21T04:43:34;101791.41;;;21.21;83.77
71638;BME280;59485;43.542;-5.676;2022-08-21T04:45:59;101784.50;;;21.24;83.05
71638;BME280;59485;43.542;-5.676;2022-08-21T04:48:26;101781.72;;;21.24;83.67
71638;BME280;59485;43.542;-5.676;2022-08-21T04:51:02;101786.22;;;21.25;83.12
71638;BME280;59485;43.542;-5.676;2022-08-21T04:53:33;101763.69;;;21.08;83.25
71638;BME280;59485;43.542;-5.676;2022-08-21T04:56:03;101751.00;;;20.94;82.75
71638;BME280;59485;43.542;-5.676;2022-08-21T04:58:30;101792.25;;;21.22;82.64
71638;BME280;59485;43.542;-5.676;2022-08-21T05:00:58;101805.13;;;21.23;82.36
71638;BME280;59485;43.542;-5.676;2022-08-21T05:03:25;101811.63;;;21.17;82.18
71638;BME280;59485;43.542;-5.676;2022-08-21T05:05:51;101820.88;;;21.17;82.85
71638;BME280;59485;43.542;-5.676;2022-08-21T05:08:19;101824.69;;;21.16;83.17
71638;BME280;59485;43.542;-5.676;2022-08-21T05:10:47;101791.16;;;21.05;83.02
71638;BME280;59485;43.542;-5.676;2022-08-21T05:13:13;101797.06;;;20.96;82.89
71638;BME280;59485;43.542;-5.676;2022-08-21T05:15:39;101829.00;;;21.19;82.45
71638;BME280;59485;43.542;-5.676;2022-08-21T05:18:05;101802.81;;;21.02;82.37
71638;BME280;59485;43.542;-5.676;2022-08-21T05:20:32;101771.91;;;20.85;82.13
71638;BME280;59485;43.542;-5.676;2022-08-21T05:22:59;101827.50;;;21.16;83.04
71638;BME280;59485;43.542;-5.676;2022-08-21T05:25:25;101818.81;;;21.06;82.78
71638;BME280;59485;43.542;-5.676;2022-08-21T05:27:50;101831.13;;;21.17;83.16
71638;BME280;59485;43.542;-5.676;2022-08-21T05:30:16;101809.47;;;21.01;82.54
71638;BME280;59485;43.542;-5.676;2022-08-21T05:32:41;101819.81;;;21.12;81.69
71638;BME280;59485;43.542;-5.676;2022-08-21T05:35:07;101836.19;;;21.08;80.71
71638;BME280;59485;43.542;-5.676;2022-08-21T05:37:33;101834.88;;;21.11;81.09
71638;BME280;59485;43.542;-5.676;2022-08-21T05:40:00;101834.00;;;21.10;80.77
71638;BME280;59485;43.542;-5.676;2022-08-21T05:42:25;101821.38;;;21.08;80.51
71638;BME280;59485;43.542;-5.676;2022-08-21T05:44:51;101824.94;;;21.15;80.88
71638;BME280;59485;43.542;-5.676;2022-08-21T05:47:16;101799.00;;;20.96;80.16
71638;BME280;59485;43.542;-5.676;2022-08-21T05:49:42;101806.91;;;20.99;80.21
71638;BME280;59485;43.542;-5.676;2022-08-21T05:52:07;101838.22;;;21.19;80.63
71638;BME280;59485;43.542;-5.676;2022-08-21T05:54:33;101818.44;;;21.03;79.89
71638;BME280;59485;43.542;-5.676;2022-08-21T05:57:03;101852.75;;;21.21;79.12
71638;BME280;59485;43.542;-5.676;2022-08-21T05:59:29;101841.88;;;21.20;78.70
71638;BME280;59485;43.542;-5.676;2022-08-21T06:01:54;101848.88;;;21.22;79.03
71638;BME280;59485;43.542;-5.676;2022-08-21T06:04:20;101852.75;;;21.21;78.59
71638;BME280;59485;43.542;-5.676;2022-08-21T06:06:45;101856.16;;;21.23;78.47
71638;BME280;59485;43.542;-5.676;2022-08-21T06:09:12;101861.53;;;21.25;78.46
71638;BME280;59485;43.542;-5.676;2022-08-21T06:11:38;101859.19;;;21.22;78.79
71638;BME280;59485;43.542;-5.676;2022-08-21T06:14:03;101812.59;;;20.92;78.46
71638;BME280;59485;43.542;-5.676;2022-08-21T06:16:31;101871.44;;;21.21;78.17
71638;BME280;59485;43.542;-5.676;2022-08-21T06:18:57;101817.75;;;20.89;78.33
71638;BME280;59485;43.542;-5.676;2022-08-21T06:21:22;101886.53;;;21.31;78.14
71638;BME280;59485;43.542;-5.676;2022-08-21T06:23:47;101856.66;;;21.20;77.62
71638;BME280;59485;43.542;-5.676;2022-08-21T06:26:14;101871.38;;;21.27;77.42
71638;BME280;59485;43.542;-5.676;2022-08-21T06:28:40;101859.69;;;21.19;77.55
71638;BME280;59485;43.542;-5.676;2022-08-21T06:31:17;101884.13;;;21.35;77.83
71638;BME280;59485;43.542;-5.676;2022-08-21T06:33:44;101887.53;;;21.37;77.43
71638;BME280;59485;43.542;-5.676;2022-08-21T06:36:09;101884.50;;;21.39;77.31
71638;BME280;59485;43.542;-5.676;2022-08-21T06:38:36;101882.25;;;21.47;77.59
71638;BME280;59485;43.542;-5.676;2022-08-21T06:41:02;101858.06;;;21.41;77.51
71638;BME280;59485;43.542;-5.676;2022-08-21T06:43:27;101867.34;;;21.53;77.77
71638;BME280;59485;43.542;-5.676;2022-08-21T06:45:53;101878.41;;;21.60;76.91
71638;BME280;59485;43.542;-5.676;2022-08-21T06:48:19;101818.69;;;21.19;76.90
71638;BME280;59485;43.542;-5.676;2022-08-21T06:50:45;101844.75;;;21.43;77.05
71638;BME280;59485;43.542;-5.676;2022-08-21T06:53:13;101866.41;;;21.59;76.88
71638;BME280;59485;43.542;-5.676;2022-08-21T06:55:39;101871.97;;;21.59;76.83
71638;BME280;59485;43.542;-5.676;2022-08-21T06:58:06;101869.28;;;21.53;76.21
71638;BME280;59485;43.542;-5.676;2022-08-21T07:00:32;101845.13;;;21.47;76.48
71638;BME280;59485;43.542;-5.676;2022-08-21T07:02:59;101862.06;;;21.63;76.65
71638;BME280;59485;43.542;-5.676;2022-08-21T07:05:26;101869.72;;;21.68;75.74
71638;BME280;59485;43.542;-5.676;2022-08-21T07:07:52;101849.75;;;21.53;74.71
71638;BME280;59485;43.542;-5.676;2022-08-21T07:10:18;101866.56;;;21.64;75.22
71638;BME280;59485;43.542;-5.676;2022-08-21T07:12:44;101849.75;;;21.53;74.72
71638;BME280;59485;43.542;-5.676;2022-08-21T07:15:11;101874.66;;;21.66;74.36
71638;BME280;59485;43.542;-5.676;2022-08-21T07:17:36;101837.06;;;21.39;74.86
71638;BME280;59485;43.542;-5.676;2022-08-21T07:20:03;101879.41;;;21.65;74.31
71638;BME280;59485;43.542;-5.676;2022-08-21T07:22:29;101867.53;;;21.70;74.13
71638;BME280;59485;43.542;-5.676;2022-08-21T07:24:55;101867.53;;;21.70;74.08
71638;BME280;59485;43.542;-5.676;2022-08-21T07:27:21;101839.44;;;21.53;73.85
71638;BME280;59485;43.542;-5.676;2022-08-21T07:29:46;101847.88;;;21.65;73.53
71638;BME280;59485;43.542;-5.676;2022-08-21T07:32:13;101840.94;;;21.67;73.61
71638;BME280;59485;43.542;-5.676;2022-08-21T07:34:40;101863.44;;;21.84;74.14
71638;BME280;59485;43.542;-5.676;2022-08-21T07:37:06;101849.47;;;21.73;73.64
71638;BME280;59485;43.542;-5.676;2022-08-21T07:39:31;101858.72;;;21.85;73.88
71638;BME280;59485;43.542;-5.676;2022-08-21T07:41:57;101817.97;;;21.54;73.66
71638;BME280;59485;43.542;-5.676;2022-08-21T07:44:22;101869.19;;;21.89;73.71
71638;BME280;59485;43.542;-5.676;2022-08-21T07:46:48;101881.31;;;21.95;73.06
71638;BME280;59485;43.542;-5.676;2022-08-21T07:49:13;101887.75;;;21.95;73.79
71638;BME280;59485;43.542;-5.676;2022-08-21T07:51:39;101858.53;;;21.68;74.06
71638;BME280;59485;43.542;-5.676;2022-08-21T07:54:04;101884.00;;;21.90;73.72
71638;BME280;59485;43.542;-5.676;2022-08-21T07:56:31;101864.22;;;21.91;74.38
71638;BME280;59485;43.542;-5.676;2022-08-21T07:58:57;101879.16;;;21.97;74.15
71638;BME280;59485;43.542;-5.676;2022-08-21T08:01:24;101875.69;;;21.83;73.90
71638;BME280;59485;43.542;-5.676;2022-08-21T08:03:50;101876.03;;;21.75;74.55
71638;BME280;59485;43.542;-5.676;2022-08-21T08:06:16;101871.81;;;21.73;75.51
71638;BME280;59485;43.542;-5.676;2022-08-21T08:08:44;101855.63;;;21.63;75.32
71638;BME280;59485;43.542;-5.676;2022-08-21T08:11:10;101872.50;;;21.68;75.25
71638;BME280;59485;43.542;-5.676;2022-08-21T08:13:47;101878.38;;;21.78;75.64
71638;BME280;59485;43.542;-5.676;2022-08-21T08:16:13;101865.66;;;21.82;74.93
71638;BME280;59485;43.542;-5.676;2022-08-21T08:18:39;101873.81;;;21.65;74.15
71638;BME280;59485;43.542;-5.676;2022-08-21T08:21:06;101876.38;;;21.67;75.01
71638;BME280;59485;43.542;-5.676;2022-08-21T08:23:32;101875.09;;;21.81;74.69
71638;BME280;59485;43.542;-5.676;2022-08-21T08:25:58;101871.59;;;21.86;74.58
71638;BME280;59485;43.542;-5.676;2022-08-21T08:28:24;101870.56;;;21.98;75.11
71638;BME280;59485;43.542;-5.676;2022-08-21T08:30:50;101881.00;;;22.03;74.83
71638;BME280;59485;43.542;-5.676;2022-08-21T08:33:18;101870.00;;;22.08;74.84
71638;BME280;59485;43.542;-5.676;2022-08-21T08:35:47;101857.34;;;22.05;74.44
71638;BME280;59485;43.542;-5.676;2022-08-21T08:38:14;101871.84;;;22.26;74.41
71638;BME280;59485;43.542;-5.676;2022-08-21T08:43:26;101884.84;;;22.32;72.41
71638;BME280;59485;43.542;-5.676;2022-08-21T08:45:53;101869.41;;;22.29;72.78
71638;BME280;59485;43.542;-5.676;2022-08-21T08:54:09;101845.25;;;22.35;70.80
71638;BME280;59485;43.542;-5.676;2022-08-21T08:56:36;101855.06;;;22.37;71.74
71638;BME280;59485;43.542;-5.676;2022-08-21T08:59:26;101846.81;;;22.42;72.30
71638;BME280;59485;43.542;-5.676;2022-08-21T09:01:52;101862.38;;;22.50;72.67
71638;BME280;59485;43.542;-5.676;2022-08-21T09:04:25;101842.78;;;22.38;71.70
71638;BME280;59485;43.542;-5.676;2022-08-21T09:10:23;101856.41;;;22.35;71.40
71638;BME280;59485;43.542;-5.676;2022-08-21T09:15:57;101852.16;;;22.44;71.93
71638;BME280;59485;43.542;-5.676;2022-08-21T09:21:38;101847.31;;;22.51;71.01
71638;BME280;59485;43.542;-5.676;2022-08-21T09:27:04;101855.31;;;22.71;69.89
71638;BME280;59485;43.542;-5.676;2022-08-21T09:29:35;101842.19;;;22.71;69.58
71638;BME280;59485;43.542;-5.676;2022-08-21T09:32:04;101844.03;;;22.89;69.07
71638;BME280;59485;43.542;-5.676;2022-08-21T09:34:34;101847.53;;;22.96;68.98
71638;BME280;59485;43.542;-5.676;2022-08-21T09:37:01;101829.66;;;22.86;69.14
71638;BME280;59485;43.542;-5.676;2022-08-21T09:39:37;101840.25;;;22.83;69.98
71638;BME280;59485;43.542;-5.676;2022-08-21T09:42:07;101867.97;;;22.97;70.44
71638;BME280;59485;43.542;-5.676;2022-08-21T09:44:37;101854.72;;;22.80;69.42
71638;BME280;59485;43.542;-5.676;2022-08-21T09:47:06;101850.47;;;22.90;69.54
71638;BME280;59485;43.542;-5.676;2022-08-21T09:49:37;101876.72;;;22.89;70.64
71638;BME280;59485;43.542;-5.676;2022-08-21T09:52:16;101856.28;;;22.88;70.09
71638;BME280;59485;43.542;-5.676;2022-08-21T09:54:45;101874.25;;;23.04;69.21
71638;BME280;59485;43.542;-5.676;2022-08-21T09:57:19;101878.75;;;23.05;71.17
71638;BME280;59485;43.542;-5.676;2022-08-21T10:00:26;101846.31;;;22.69;72.56
71638;BME280;59485;43.542;-5.676;2022-08-21T10:02:52;101871.97;;;22.66;72.87
71638;BME280;59485;43.542;-5.676;2022-08-21T10:05:26;101845.13;;;22.41;74.50
71638;BME280;59485;43.542;-5.676;2022-08-21T10:07:52;101878.91;;;22.52;75.37
71638;BME280;59485;43.542;-5.676;2022-08-21T10:10:26;101878.66;;;22.41;74.14
71638;BME280;59485;43.542;-5.676;2022-08-21T10:20:41;101856.78;;;22.27;76.89
71638;BME280;59485;43.542;-5.676;2022-08-21T10:26:13;101868.03;;;22.20;76.52
71638;BME280;59485;43.542;-5.676;2022-08-21T10:34:27;101859.81;;;22.25;76.43
71638;BME280;59485;43.542;-5.676;2022-08-21T10:37:27;101862.72;;;22.30;75.71
71638;BME280;59485;43.542;-5.676;2022-08-21T10:40:27;101855.91;;;22.38;76.40
71638;BME280;59485;43.542;-5.676;2022-08-21T10:48:27;101855.41;;;22.29;76.50
71638;BME280;59485;43.542;-5.676;2022-08-21T10:51:03;101855.91;;;22.38;76.01
71638;BME280;59485;43.542;-5.676;2022-08-21T10:56:22;101857.88;;;22.49;76.30
71638;BME280;59485;43.542;-5.676;2022-08-21T11:04:26;101862.69;;;22.07;78.93
71638;BME280;59485;43.542;-5.676;2022-08-21T11:07:02;101855.78;;;22.10;79.59
71638;BME280;59485;43.542;-5.676;2022-08-21T11:09:30;101829.84;;;21.91;79.13
71638;BME280;59485;43.542;-5.676;2022-08-21T11:12:00;101851.13;;;22.03;79.23
71638;BME280;59485;43.542;-5.676;2022-08-21T11:17:05;101842.75;;;22.03;79.89
71638;BME280;59485;43.542;-5.676;2022-08-21T11:19:53;101810.31;;;21.91;79.32
71638;BME280;59485;43.542;-5.676;2022-08-21T11:25:27;101839.38;;;22.13;79.43
71638;BME280;59485;43.542;-5.676;2022-08-21T11:28:06;101820.44;;;22.03;79.81
71638;BME280;59485;43.542;-5.676;2022-08-21T11:31:06;101834.88;;;22.12;79.34
71638;BME280;59485;43.542;-5.676;2022-08-21T11:39:52;101828.34;;;22.06;80.23
71638;BME280;59485;43.542;-5.676;2022-08-21T11:42:29;101819.22;;;21.99;80.27
71638;BME280;59485;43.542;-5.676;2022-08-21T11:45:14;101808.97;;;21.93;79.55
71638;BME280;59485;43.542;-5.676;2022-08-21T11:48:02;101821.41;;;21.97;80.30
71638;BME280;59485;43.542;-5.676;2022-08-21T11:50:32;101826.50;;;22.00;80.09
71638;BME280;59485;43.542;-5.676;2022-08-21T11:53:12;101832.50;;;21.86;80.83
71638;BME280;59485;43.542;-5.676;2022-08-21T11:55:55;101828.69;;;21.98;79.67
71638;BME280;59485;43.542;-5.676;2022-08-21T11:58:41;101823.78;;;21.94;80.02
71638;BME280;59485;43.542;-5.676;2022-08-21T12:01:14;101823.66;;;21.89;81.01
71638;BME280;59485;43.542;-5.676;2022-08-21T12:06:30;101809.22;;;21.92;80.11
71638;BME280;59485;43.542;-5.676;2022-08-21T12:08:59;101826.00;;;22.03;79.31
71638;BME280;59485;43.542;-5.676;2022-08-21T12:11:25;101807.03;;;21.94;79.95
71638;BME280;59485;43.542;-5.676;2022-08-21T12:16:31;101820.81;;;22.07;78.83
71638;BME280;59485;43.542;-5.676;2022-08-21T12:24:50;101819.84;;;22.25;78.70
71638;BME280;59485;43.542;-5.676;2022-08-21T12:27:46;101819.22;;;22.11;80.69
71638;BME280;59485;43.542;-5.676;2022-08-21T12:30:22;101820.44;;;22.03;80.50
71638;BME280;59485;43.542;-5.676;2022-08-21T12:32:56;101820.56;;;22.08;80.36
71638;BME280;59485;43.542;-5.676;2022-08-21T12:35:37;101802.34;;;22.06;79.33
71638;BME280;59485;43.542;-5.676;2022-08-21T12:38:20;101791.28;;;22.11;78.89
71638;BME280;59485;43.542;-5.676;2022-08-21T12:40:56;101813.66;;;22.34;77.84
71638;BME280;59485;43.542;-5.676;2022-08-21T12:45:59;101818.13;;;22.47;77.47
71638;BME280;59485;43.542;-5.676;2022-08-21T12:48:57;101801.38;;;22.12;77.93
71638;BME280;59485;43.542;-5.676;2022-08-21T12:51:32;101834.66;;;22.25;79.02
71638;BME280;59485;43.542;-5.676;2022-08-21T12:53:59;101832.34;;;22.22;77.91
71638;BME280;59485;43.542;-5.676;2022-08-21T12:56:27;101835.38;;;22.21;78.20
71638;BME280;59485;43.542;-5.676;2022-08-21T12:58:56;101841.47;;;22.18;77.72
71638;BME280;59485;43.542;-5.676;2022-08-21T13:01:54;101828.00;;;22.26;79.18
71638;BME280;59485;43.542;-5.676;2022-08-21T13:04:38;101821.78;;;22.13;78.90
71638;BME280;59485;43.542;-5.676;2022-08-21T13:07:12;101787.66;;;21.99;78.98
71638;BME280;59485;43.542;-5.676;2022-08-21T13:09:54;101793.25;;;21.99;79.82
71638;BME280;59485;43.542;-5.676;2022-08-21T13:12:22;101823.84;;;22.17;79.59
71638;BME280;59485;43.542;-5.676;2022-08-21T13:14:50;101824.94;;;22.16;79.13
71638;BME280;59485;43.542;-5.676;2022-08-21T13:17:19;101827.97;;;22.15;79.46
71638;BME280;59485;43.542;-5.676;2022-08-21T13:19:56;101825.91;;;22.22;79.70
71638;BME280;59485;43.542;-5.676;2022-08-21T13:22:26;101839.63;;;22.23;78.74
71638;BME280;59485;43.542;-5.676;2022-08-21T13:24:52;101839.25;;;22.20;78.33
71638;BME280;59485;43.542;-5.676;2022-08-21T13:27:23;101839.53;;;22.18;78.28
71638;BME280;59485;43.542;-5.676;2022-08-21T13:30:02;101826.66;;;22.17;77.88
71638;BME280;59485;43.542;-5.676;2022-08-21T13:32:30;101842.31;;;22.30;77.97
71638;BME280;59485;43.542;-5.676;2022-08-21T13:34:58;101837.59;;;22.42;77.52
71638;BME280;59485;43.542;-5.676;2022-08-21T13:37:26;101838.44;;;22.54;77.22
71638;BME280;59485;43.542;-5.676;2022-08-21T13:39:53;101841.72;;;22.74;76.74
71638;BME280;59485;43.542;-5.676;2022-08-21T13:42:18;101819.81;;;22.71;74.73
71638;BME280;59485;43.542;-5.676;2022-08-21T13:44:46;101812.66;;;22.75;74.27
71638;BME280;59485;43.542;-5.676;2022-08-21T13:47:15;101831.84;;;22.95;74.78
71638;BME280;59485;43.542;-5.676;2022-08-21T13:49:46;101841.75;;;23.14;75.17
71638;BME280;59485;43.542;-5.676;2022-08-21T13:52:19;101836.63;;;23.23;75.33
71638;BME280;59485;43.542;-5.676;2022-08-21T13:54:59;101829.63;;;23.37;74.32
71638;BME280;59485;43.542;-5.676;2022-08-21T13:57:32;101833.22;;;23.61;72.45
71638;BME280;59485;43.542;-5.676;2022-08-21T14:00:15;101835.19;;;23.77;73.38
71638;BME280;59485;43.542;-5.676;2022-08-21T14:02:44;101802.56;;;23.71;71.02
71638;BME280;59485;43.542;-5.676;2022-08-21T14:05:16;101809.13;;;23.77;70.71
71638;BME280;59485;43.542;-5.676;2022-08-21T14:07:44;101821.09;;;23.89;69.30